createdAt,value
2019-01-04T00:00:03.194Z,0.00
2019-01-04T00:01:03.364Z,0.00
2019-01-04T00:02:03.534Z,0.00
2019-01-04T00:03:03.701Z,0.00
2019-01-04T00:04:03.880Z,0.00
2019-01-04T00:05:04.043Z,0.00
2019-01-04T00:06:04.212Z,0.00
2019-01-04T00:07:04.385Z,0.00
2019-01-04T00:08:04.555Z,0.00
2019-01-04T00:09:05.733Z,0.00
2019-01-04T00:10:04.897Z,0.00
2019-01-04T00:11:05.068Z,0.00
2019-01-04T00:12:05.235Z,0.00
2019-01-04T00:13:05.411Z,0.00
2019-01-04T00:14:05.590Z,0.00
2019-01-04T00:15:05.753Z,0.00
2019-01-04T00:16:05.924Z,0.00
2019-01-04T00:17:06.099Z,0.00
2019-01-04T00:18:06.272Z,0.00
2019-01-04T00:19:06.433Z,0.00
2019-01-04T00:20:06.606Z,0.00
2019-01-04T00:21:06.783Z,0.00
2019-01-04T00:22:06.969Z,0.00
2019-01-04T00:23:07.121Z,0.00
2019-01-04T00:24:07.296Z,0.00
2019-01-04T00:25:07.458Z,0.00
2019-01-04T00:26:07.637Z,0.00
2019-01-04T00:27:07.797Z,0.00
2019-01-04T00:28:07.969Z,0.00
2019-01-04T00:29:08.143Z,0.00
2019-01-04T00:30:08.312Z,0.00
2019-01-04T00:31:08.488Z,0.00
2019-01-04T00:32:08.655Z,0.00
2019-01-04T00:33:08.827Z,0.00
2019-01-04T00:34:08.996Z,0.00
2019-01-04T00:35:09.170Z,0.00
2019-01-04T00:36:09.338Z,0.00
2019-01-04T00:37:09.507Z,0.00
2019-01-04T00:38:09.677Z,0.00
2019-01-04T00:39:09.852Z,0.00
2019-01-04T00:40:10.022Z,0.00
2019-01-04T00:41:10.193Z,0.00
2019-01-04T00:42:10.364Z,0.00
2019-01-04T00:43:10.541Z,0.00
2019-01-04T00:44:10.709Z,0.00
2019-01-04T00:45:10.888Z,0.00
2019-01-04T00:46:11.048Z,0.00
2019-01-04T00:47:11.219Z,0.00
2019-01-04T00:48:11.391Z,0.00
2019-01-04T00:49:11.561Z,0.00
2019-01-04T00:50:11.731Z,0.00
2019-01-04T00:51:11.901Z,0.00
2019-01-04T00:52:12.077Z,0.00
2019-01-04T00:53:12.254Z,0.00
2019-01-04T00:54:12.410Z,0.00
2019-01-04T00:55:12.575Z,0.00
2019-01-04T00:56:12.748Z,0.00
2019-01-04T00:57:12.913Z,0.00
2019-01-04T00:58:13.080Z,0.00
2019-01-04T00:59:13.250Z,0.00
2019-01-04T01:00:13.420Z,0.00
2019-01-04T01:01:13.589Z,0.00
2019-01-04T01:02:13.759Z,0.00
2019-01-04T01:03:13.932Z,0.00
2019-01-04T01:04:14.098Z,0.00
2019-01-04T01:05:14.271Z,0.00
2019-01-04T01:06:14.445Z,0.00
2019-01-04T01:07:15.536Z,0.00
2019-01-04T01:08:14.784Z,0.00
2019-01-04T01:09:14.957Z,0.00
2019-01-04T01:10:15.134Z,0.00
2019-01-04T01:11:15.307Z,0.00
2019-01-04T01:12:15.467Z,0.00
2019-01-04T01:13:15.636Z,0.00
2019-01-04T01:14:15.806Z,0.00
2019-01-04T01:15:15.976Z,0.00
2019-01-04T01:16:16.151Z,0.00
2019-01-04T01:17:16.321Z,0.00
2019-01-04T01:18:16.492Z,0.00
2019-01-04T01:19:16.660Z,0.00
2019-01-04T01:20:16.822Z,0.00
2019-01-04T01:21:16.989Z,0.00
2019-01-04T01:22:17.164Z,0.00
2019-01-04T01:23:17.330Z,0.00
2019-01-04T01:24:17.500Z,0.00
2019-01-04T01:25:17.672Z,0.00
2019-01-04T01:26:18.731Z,0.00
2019-01-04T01:27:17.991Z,0.00
2019-01-04T01:28:18.161Z,0.00
2019-01-04T01:29:18.331Z,0.00
2019-01-04T01:30:18.521Z,0.00
2019-01-04T01:31:18.673Z,0.00
2019-01-04T01:32:18.843Z,0.00
2019-01-04T01:33:19.013Z,0.00
2019-01-04T01:34:19.186Z,0.00
2019-01-04T01:35:19.355Z,0.00
2019-01-04T01:36:19.526Z,0.00
2019-01-04T01:37:19.698Z,0.00
2019-01-04T01:38:19.876Z,0.00
2019-01-04T01:39:20.049Z,0.00
2019-01-04T01:40:20.206Z,0.00
2019-01-04T01:41:20.378Z,0.00
2019-01-04T01:42:20.547Z,0.00
2019-01-04T01:43:20.716Z,0.00
2019-01-04T01:44:20.894Z,0.00
2019-01-04T01:45:21.056Z,0.00
2019-01-04T01:46:21.229Z,0.00
2019-01-04T01:47:21.393Z,0.00
2019-01-04T01:48:21.563Z,0.00
2019-01-04T01:49:21.738Z,0.00
2019-01-04T01:50:21.898Z,0.00
2019-01-04T01:51:22.069Z,0.00
2019-01-04T01:52:22.256Z,0.00
2019-01-04T01:53:22.411Z,0.00
2019-01-04T01:54:22.580Z,0.00
2019-01-04T01:55:22.764Z,0.00
2019-01-04T01:56:22.927Z,0.00
2019-01-04T01:57:23.098Z,0.00
2019-01-04T01:58:23.280Z,0.00
2019-01-04T01:59:23.442Z,0.00
2019-01-04T02:00:23.620Z,0.00
2019-01-04T02:01:23.779Z,0.00
2019-01-04T02:02:23.953Z,0.00
2019-01-04T02:03:24.116Z,0.00
2019-01-04T02:04:24.285Z,0.00
2019-01-04T02:05:24.461Z,0.00
2019-01-04T02:06:24.642Z,0.00
2019-01-04T02:07:24.798Z,0.00
2019-01-04T02:08:25.014Z,0.00
2019-01-04T02:09:25.139Z,0.00
2019-01-04T02:10:25.311Z,0.00
2019-01-04T02:11:25.488Z,0.00
2019-01-04T02:12:25.647Z,0.00
2019-01-04T02:13:25.817Z,0.00
2019-01-04T02:14:25.993Z,0.00
2019-01-04T02:15:26.161Z,0.00
2019-01-04T02:16:26.347Z,0.00
2019-01-04T02:17:26.497Z,0.00
2019-01-04T02:18:26.667Z,0.00
2019-01-04T02:19:26.847Z,0.00
2019-01-04T02:20:27.013Z,0.00
2019-01-04T02:21:27.185Z,0.00
2019-01-04T02:22:27.352Z,0.00
2019-01-04T02:23:27.524Z,0.00
2019-01-04T02:24:27.690Z,0.00
2019-01-04T02:25:27.863Z,0.00
2019-01-04T02:26:28.029Z,0.00
2019-01-04T02:27:28.200Z,0.00
2019-01-04T02:28:28.355Z,0.00
2019-01-04T02:29:28.553Z,0.00
2019-01-04T02:30:28.723Z,0.00
2019-01-04T02:31:28.895Z,0.00
2019-01-04T02:32:29.067Z,0.00
2019-01-04T02:33:29.235Z,0.00
2019-01-04T02:34:29.407Z,0.00
2019-01-04T02:35:29.583Z,0.00
2019-01-04T02:36:29.749Z,0.00
2019-01-04T02:37:29.920Z,0.00
2019-01-04T02:38:30.085Z,0.00
2019-01-04T02:39:30.269Z,0.00
2019-01-04T02:40:30.430Z,0.00
2019-01-04T02:41:30.605Z,0.00
2019-01-04T02:42:30.775Z,0.00
2019-01-04T02:43:30.932Z,0.00
2019-01-04T02:44:31.111Z,0.00
2019-01-04T02:45:31.307Z,0.00
2019-01-04T02:46:31.462Z,0.00
2019-01-04T02:47:31.623Z,0.00
2019-01-04T02:48:31.789Z,0.00
2019-01-04T02:49:31.995Z,0.00
2019-01-04T02:50:32.137Z,0.00
2019-01-04T02:51:32.311Z,0.00
2019-01-04T02:52:32.476Z,0.00
2019-01-04T02:53:32.646Z,0.00
2019-01-04T02:54:32.820Z,0.00
2019-01-04T02:55:32.990Z,0.00
2019-01-04T02:56:33.167Z,0.00
2019-01-04T02:57:33.342Z,0.00
2019-01-04T02:58:33.512Z,0.00
2019-01-04T02:59:33.675Z,0.00
2019-01-04T03:00:33.861Z,0.00
2019-01-04T03:01:34.011Z,0.00
2019-01-04T03:02:34.185Z,0.00
2019-01-04T03:03:34.352Z,0.00
2019-01-04T03:04:34.535Z,0.00
2019-01-04T03:05:34.698Z,0.00
2019-01-04T03:06:34.865Z,0.00
2019-01-04T03:07:35.036Z,0.00
2019-01-04T03:08:35.210Z,0.00
2019-01-04T03:09:35.383Z,0.00
2019-01-04T03:10:35.554Z,0.00
2019-01-04T03:11:35.729Z,0.00
2019-01-04T03:12:35.894Z,0.00
2019-01-04T03:13:36.061Z,0.00
2019-01-04T03:14:36.240Z,0.00
2019-01-04T03:15:36.409Z,0.00
2019-01-04T03:16:36.580Z,0.00
2019-01-04T03:17:36.748Z,0.00
2019-01-04T03:18:36.920Z,0.00
2019-01-04T03:19:37.084Z,0.00
2019-01-04T03:20:37.262Z,0.00
2019-01-04T03:21:37.427Z,0.00
2019-01-04T03:22:37.605Z,0.00
2019-01-04T03:23:37.769Z,0.00
2019-01-04T03:24:37.934Z,0.00
2019-01-04T03:25:38.104Z,0.00
2019-01-04T03:26:38.281Z,0.00
2019-01-04T03:27:38.449Z,0.00
2019-01-04T03:28:38.625Z,0.00
2019-01-04T03:29:38.786Z,0.00
2019-01-04T03:30:38.958Z,0.00
2019-01-04T03:31:39.136Z,0.00
2019-01-04T03:32:39.301Z,0.00
2019-01-04T03:33:39.476Z,0.00
2019-01-04T03:34:39.637Z,0.00
2019-01-04T03:35:39.809Z,0.00
2019-01-04T03:36:39.977Z,0.00
2019-01-04T03:37:40.150Z,0.00
2019-01-04T03:38:40.315Z,0.00
2019-01-04T03:39:40.490Z,0.00
2019-01-04T03:40:40.657Z,0.00
2019-01-04T03:41:40.828Z,0.00
2019-01-04T03:42:40.993Z,0.00
2019-01-04T03:43:41.165Z,0.00
2019-01-04T03:44:41.337Z,0.00
2019-01-04T03:45:41.519Z,0.00
2019-01-04T03:46:41.680Z,0.00
2019-01-04T03:47:41.849Z,0.00
2019-01-04T03:48:42.016Z,0.00
2019-01-04T03:49:42.190Z,0.00
2019-01-04T03:50:42.356Z,0.00
2019-01-04T03:51:42.533Z,0.00
2019-01-04T03:52:42.700Z,0.00
2019-01-04T03:53:42.865Z,0.00
2019-01-04T03:54:43.042Z,0.00
2019-01-04T03:55:43.207Z,0.00
2019-01-04T03:56:43.375Z,0.00
2019-01-04T03:57:43.551Z,0.00
2019-01-04T03:58:43.722Z,0.00
2019-01-04T03:59:43.925Z,0.00
2019-01-04T04:00:44.048Z,0.00
2019-01-04T04:01:44.251Z,0.00
2019-01-04T04:02:44.406Z,0.00
2019-01-04T04:03:44.569Z,0.00
2019-01-04T04:04:44.739Z,0.00
2019-01-04T04:05:44.912Z,0.00
2019-01-04T04:06:45.080Z,0.00
2019-01-04T04:07:45.248Z,0.00
2019-01-04T04:08:45.419Z,0.00
2019-01-04T04:09:45.590Z,0.00
2019-01-04T04:10:45.757Z,0.00
2019-01-04T04:11:45.942Z,0.00
2019-01-04T04:12:46.100Z,0.00
2019-01-04T04:13:46.277Z,0.00
2019-01-04T04:14:46.438Z,0.00
2019-01-04T04:15:46.609Z,0.00
2019-01-04T04:16:46.785Z,0.00
2019-01-04T04:17:46.952Z,0.00
2019-01-04T04:18:47.120Z,0.00
2019-01-04T04:19:47.290Z,0.00
2019-01-04T04:20:47.462Z,0.00
2019-01-04T04:21:47.630Z,0.00
2019-01-04T04:22:47.803Z,0.00
2019-01-04T04:23:47.973Z,0.00
2019-01-04T04:24:48.142Z,0.00
2019-01-04T04:25:48.317Z,0.00
2019-01-04T04:26:48.479Z,0.00
2019-01-04T04:27:48.651Z,0.00
2019-01-04T04:28:48.822Z,0.00
2019-01-04T04:29:48.994Z,0.00
2019-01-04T04:30:49.163Z,0.00
2019-01-04T04:31:49.333Z,0.00
2019-01-04T04:32:49.506Z,0.00
2019-01-04T04:33:49.675Z,0.00
2019-01-04T04:34:49.850Z,0.00
2019-01-04T04:35:50.016Z,0.00
2019-01-04T04:36:50.192Z,0.00
2019-01-04T04:37:50.357Z,0.00
2019-01-04T04:38:50.529Z,0.00
2019-01-04T04:39:50.696Z,0.00
2019-01-04T04:40:50.872Z,0.00
2019-01-04T04:41:51.045Z,0.00
2019-01-04T04:42:51.211Z,0.00
2019-01-04T04:43:51.379Z,0.00
2019-01-04T04:44:51.550Z,0.00
2019-01-04T04:45:51.748Z,0.00
2019-01-04T04:46:51.899Z,0.00
2019-01-04T04:47:52.067Z,0.00
2019-01-04T04:48:52.238Z,0.00
2019-01-04T04:49:52.415Z,0.00
2019-01-04T04:50:52.585Z,0.00
2019-01-04T04:51:52.748Z,0.00
2019-01-04T04:52:52.918Z,0.00
2019-01-04T04:53:53.087Z,0.00
2019-01-04T04:54:53.262Z,0.00
2019-01-04T04:55:53.422Z,0.00
2019-01-04T04:56:53.596Z,0.00
2019-01-04T04:57:53.770Z,0.00
2019-01-04T04:58:53.943Z,0.00
2019-01-04T04:59:54.110Z,0.00
2019-01-04T05:00:54.296Z,0.00
2019-01-04T05:01:54.448Z,0.00
2019-01-04T05:02:54.613Z,0.00
2019-01-04T05:03:54.785Z,0.00
2019-01-04T05:04:54.954Z,0.00
2019-01-04T05:05:55.124Z,0.00
2019-01-04T05:06:55.292Z,0.00
2019-01-04T05:07:55.466Z,0.00
2019-01-04T05:08:55.635Z,0.00
2019-01-04T05:09:55.802Z,0.00
2019-01-04T05:10:55.974Z,0.00
2019-01-04T05:11:56.155Z,0.00
2019-01-04T05:12:56.324Z,0.00
2019-01-04T05:13:56.493Z,0.00
2019-01-04T05:14:56.661Z,0.00
2019-01-04T05:15:56.832Z,0.00
2019-01-04T05:16:57.007Z,0.00
2019-01-04T05:17:57.184Z,0.00
2019-01-04T05:18:57.341Z,0.00
2019-01-04T05:19:57.513Z,0.00
2019-01-04T05:20:57.684Z,0.00
2019-01-04T05:21:57.862Z,0.00
2019-01-04T05:22:58.024Z,0.00
2019-01-04T05:23:58.193Z,0.00
2019-01-04T05:24:58.362Z,0.00
2019-01-04T05:25:58.532Z,0.00
2019-01-04T05:26:58.705Z,0.00
2019-01-04T05:27:58.877Z,0.00
2019-01-04T05:28:59.054Z,0.00
2019-01-04T05:29:59.213Z,0.00
2019-01-04T05:30:59.382Z,0.00
2019-01-04T05:31:59.551Z,0.00
2019-01-04T05:32:59.730Z,0.00
2019-01-04T05:33:59.903Z,0.00
2019-01-04T05:35:00.170Z,0.00
2019-01-04T05:36:00.260Z,0.00
2019-01-04T05:37:00.392Z,0.00
2019-01-04T05:38:00.568Z,0.00
2019-01-04T05:39:00.754Z,0.00
2019-01-04T05:40:00.903Z,0.00
2019-01-04T05:41:01.071Z,0.00
2019-01-04T05:42:01.248Z,0.00
2019-01-04T05:43:01.420Z,0.00
2019-01-04T05:44:01.586Z,0.00
2019-01-04T05:45:01.753Z,0.00
2019-01-04T05:46:01.928Z,0.00
2019-01-04T05:47:02.089Z,0.00
2019-01-04T05:48:02.279Z,0.00
2019-01-04T05:49:02.429Z,0.00
2019-01-04T05:50:02.597Z,0.00
2019-01-04T05:51:02.768Z,0.00
2019-01-04T05:52:02.951Z,0.00
2019-01-04T05:53:03.117Z,0.00
2019-01-04T05:54:03.288Z,0.00
2019-01-04T05:55:03.450Z,0.00
2019-01-04T05:56:03.638Z,0.00
2019-01-04T05:57:03.786Z,0.00
2019-01-04T05:58:03.950Z,0.00
2019-01-04T05:59:04.124Z,0.00
2019-01-04T06:00:04.303Z,0.00
2019-01-04T06:01:04.467Z,0.00
2019-01-04T06:02:04.638Z,0.00
2019-01-04T06:03:04.803Z,0.00
2019-01-04T06:04:04.979Z,0.00
2019-01-04T06:05:05.149Z,0.00
2019-01-04T06:06:05.324Z,0.00
2019-01-04T06:07:05.487Z,0.00
2019-01-04T06:08:05.653Z,0.00
2019-01-04T06:09:05.828Z,0.00
2019-01-04T06:10:05.990Z,0.00
2019-01-04T06:11:06.162Z,0.00
2019-01-04T06:12:06.331Z,0.00
2019-01-04T06:13:06.543Z,0.00
2019-01-04T06:14:06.666Z,0.00
2019-01-04T06:15:06.832Z,0.00
2019-01-04T06:16:07.002Z,0.00
2019-01-04T06:17:07.174Z,0.00
2019-01-04T06:18:07.346Z,0.00
2019-01-04T06:19:07.517Z,0.00
2019-01-04T06:20:07.694Z,0.00
2019-01-04T06:21:07.848Z,0.00
2019-01-04T06:22:08.014Z,0.00
2019-01-04T06:23:08.181Z,0.00
2019-01-04T06:24:08.356Z,0.00
2019-01-04T06:25:08.520Z,0.00
2019-01-04T06:26:08.687Z,0.00
2019-01-04T06:27:08.868Z,0.00
2019-01-04T06:28:09.025Z,0.00
2019-01-04T06:29:09.204Z,0.00
2019-01-04T06:30:09.371Z,0.00
2019-01-04T06:31:09.535Z,0.00
2019-01-04T06:32:09.703Z,0.00
2019-01-04T06:33:09.893Z,0.00
2019-01-04T06:34:10.055Z,0.00
2019-01-04T06:35:10.213Z,0.00
2019-01-04T06:36:10.384Z,0.00
2019-01-04T06:37:10.553Z,0.00
2019-01-04T06:38:10.719Z,0.00
2019-01-04T06:39:10.887Z,0.00
2019-01-04T06:40:11.063Z,0.00
2019-01-04T06:41:11.234Z,0.00
2019-01-04T06:42:11.405Z,0.00
2019-01-04T06:43:11.573Z,0.00
2019-01-04T06:44:11.745Z,0.00
2019-01-04T06:45:11.912Z,0.00
2019-01-04T06:46:12.079Z,0.00
2019-01-04T06:47:12.250Z,0.00
2019-01-04T06:48:12.420Z,0.00
2019-01-04T06:49:12.602Z,0.00
2019-01-04T06:50:12.767Z,0.00
2019-01-04T06:51:12.926Z,0.00
2019-01-04T06:52:13.104Z,0.00
2019-01-04T06:53:13.279Z,4.00
2019-01-04T06:54:13.446Z,4.00
2019-01-04T06:55:13.624Z,4.00
2019-01-04T06:56:13.783Z,4.00
2019-01-04T06:57:13.952Z,0.00
2019-01-04T06:58:14.122Z,0.00
2019-01-04T06:59:14.293Z,4.00
2019-01-04T07:00:14.508Z,4.00
2019-01-04T07:01:14.640Z,4.00
2019-01-04T07:02:14.808Z,4.00
2019-01-04T07:03:14.980Z,4.00
2019-01-04T07:04:15.162Z,4.00
2019-01-04T07:05:15.319Z,4.00
2019-01-04T07:06:15.492Z,4.00
2019-01-04T07:07:15.668Z,8.00
2019-01-04T07:08:15.837Z,12.00
2019-01-04T07:09:15.999Z,16.00
2019-01-04T07:10:16.170Z,20.00
2019-01-04T07:11:16.341Z,24.00
2019-01-04T07:12:16.510Z,24.00
2019-01-04T07:13:17.284Z,24.00
2019-01-04T07:14:16.857Z,28.00
2019-01-04T07:15:17.024Z,28.00
2019-01-04T07:16:17.192Z,36.00
2019-01-04T07:17:17.365Z,36.00
2019-01-04T07:18:17.525Z,36.00
2019-01-04T07:19:17.694Z,36.00
2019-01-04T07:20:17.871Z,36.00
2019-01-04T07:21:18.031Z,36.00
2019-01-04T07:22:18.202Z,40.00
2019-01-04T07:23:18.368Z,36.00
2019-01-04T07:24:18.560Z,40.00
2019-01-04T07:25:18.712Z,40.00
2019-01-04T07:26:18.879Z,44.00
2019-01-04T07:27:19.050Z,48.00
2019-01-04T07:28:19.227Z,56.00
2019-01-04T07:29:19.394Z,68.00
2019-01-04T07:30:19.573Z,88.00
2019-01-04T07:31:19.726Z,108.00
2019-01-04T07:32:19.879Z,116.00
2019-01-04T07:33:20.060Z,124.00
2019-01-04T07:34:20.224Z,140.00
2019-01-04T07:35:20.392Z,148.00
2019-01-04T07:36:20.561Z,164.00
2019-01-04T07:37:20.731Z,176.00
2019-01-04T07:38:21.010Z,192.00
2019-01-04T07:39:21.076Z,216.00
2019-01-04T07:40:21.243Z,236.00
2019-01-04T07:41:21.412Z,244.00
2019-01-04T07:42:21.586Z,260.00
2019-01-04T07:43:21.750Z,276.00
2019-01-04T07:44:21.921Z,304.00
2019-01-04T07:45:22.091Z,332.00
2019-01-04T07:46:22.263Z,352.00
2019-01-04T07:47:22.464Z,368.00
2019-01-04T07:48:22.579Z,372.00
2019-01-04T07:49:22.763Z,376.00
2019-01-04T07:50:22.935Z,408.00
2019-01-04T07:51:23.099Z,468.00
2019-01-04T07:52:23.264Z,552.00
2019-01-04T07:53:23.442Z,624.00
2019-01-04T07:54:23.613Z,664.00
2019-01-04T07:55:23.780Z,656.00
2019-01-04T07:56:23.958Z,632.00
2019-01-04T07:57:24.121Z,620.00
2019-01-04T07:58:24.293Z,636.00
2019-01-04T07:59:24.482Z,684.00
2019-01-04T08:00:24.641Z,716.00
2019-01-04T08:01:24.795Z,740.00
2019-01-04T08:02:24.966Z,748.00
2019-01-04T08:03:25.148Z,732.00
2019-01-04T08:04:25.323Z,696.00
2019-01-04T08:05:25.482Z,664.00
2019-01-04T08:06:25.651Z,636.00
2019-01-04T08:07:25.820Z,596.00
2019-01-04T08:08:25.992Z,556.00
2019-01-04T08:09:26.175Z,516.00
2019-01-04T08:10:26.330Z,496.00
2019-01-04T08:11:26.507Z,504.00
2019-01-04T08:12:26.665Z,576.00
2019-01-04T08:13:26.836Z,624.00
2019-01-04T08:14:27.002Z,628.00
2019-01-04T08:15:27.183Z,608.00
2019-01-04T08:16:27.352Z,608.00
2019-01-04T08:17:27.522Z,636.00
2019-01-04T08:18:27.688Z,668.00
2019-01-04T08:19:27.874Z,648.00
2019-01-04T08:20:28.042Z,612.00
2019-01-04T08:21:28.207Z,536.00
2019-01-04T08:22:28.379Z,536.00
2019-01-04T08:23:28.554Z,540.00
2019-01-04T08:24:28.723Z,588.00
2019-01-04T08:25:28.889Z,664.00
2019-01-04T08:26:29.059Z,744.00
2019-01-04T08:27:29.229Z,856.00
2019-01-04T08:28:29.399Z,960.00
2019-01-04T08:29:29.569Z,1040.00
2019-01-04T08:30:29.735Z,1108.00
2019-01-04T08:31:29.910Z,1168.00
2019-01-04T08:32:30.104Z,1204.00
2019-01-04T08:33:30.248Z,1216.00
2019-01-04T08:34:30.418Z,1248.00
2019-01-04T08:35:30.586Z,1300.00
2019-01-04T08:36:30.756Z,1320.00
2019-01-04T08:37:30.922Z,1380.00
2019-01-04T08:38:31.094Z,1472.00
2019-01-04T08:39:31.264Z,1544.00
2019-01-04T08:40:31.439Z,1592.00
2019-01-04T08:41:31.608Z,1612.00
2019-01-04T08:42:31.770Z,1628.00
2019-01-04T08:43:31.944Z,1600.00
2019-01-04T08:44:32.116Z,1560.00
2019-01-04T08:45:32.278Z,1564.00
2019-01-04T08:46:32.455Z,1572.00
2019-01-04T08:47:32.630Z,1568.00
2019-01-04T08:48:32.795Z,1512.00
2019-01-04T08:49:32.966Z,1504.00
2019-01-04T08:50:33.140Z,1488.00
2019-01-04T08:51:33.313Z,1564.00
2019-01-04T08:52:33.476Z,1636.00
2019-01-04T08:53:33.664Z,1636.00
2019-01-04T08:54:33.797Z,1612.00
2019-01-04T08:55:33.982Z,1516.00
2019-01-04T08:56:34.156Z,1508.00
2019-01-04T08:57:34.331Z,1588.00
2019-01-04T08:58:34.494Z,1660.00
2019-01-04T08:59:34.676Z,1656.00
2019-01-04T09:00:34.845Z,1744.00
2019-01-04T09:01:35.014Z,1848.00
2019-01-04T09:02:35.183Z,1932.00
2019-01-04T09:03:35.342Z,1908.00
2019-01-04T09:04:35.512Z,1988.00
2019-01-04T09:05:35.678Z,2140.00
2019-01-04T09:06:35.855Z,2304.00
2019-01-04T09:07:36.028Z,2504.00
2019-01-04T09:08:36.195Z,2664.00
2019-01-04T09:09:36.367Z,2768.00
2019-01-04T09:10:36.534Z,2836.00
2019-01-04T09:11:36.701Z,2908.00
2019-01-04T09:12:36.872Z,3032.00
2019-01-04T09:13:37.041Z,3100.00
2019-01-04T09:14:37.206Z,3164.00
2019-01-04T09:15:37.389Z,3204.00
2019-01-04T09:16:37.563Z,3220.00
2019-01-04T09:17:37.739Z,3256.00
2019-01-04T09:18:37.909Z,3284.00
2019-01-04T09:19:38.072Z,3324.00
2019-01-04T09:20:38.243Z,3296.00
2019-01-04T09:21:38.418Z,3272.00
2019-01-04T09:22:38.582Z,3328.00
2019-01-04T09:23:38.755Z,3408.00
2019-01-04T09:24:38.931Z,3444.00
2019-01-04T09:25:39.103Z,3548.00
2019-01-04T09:26:39.262Z,3664.00
2019-01-04T09:27:39.435Z,3752.00
2019-01-04T09:28:39.601Z,3848.00
2019-01-04T09:29:39.774Z,3844.00
2019-01-04T09:30:39.948Z,3852.00
2019-01-04T09:31:40.113Z,3832.00
2019-01-04T09:32:40.279Z,3864.00
2019-01-04T09:33:40.458Z,3836.00
2019-01-04T09:34:40.630Z,3876.00
2019-01-04T09:35:40.810Z,3928.00
2019-01-04T09:36:40.967Z,3976.00
2019-01-04T09:37:41.127Z,3964.00
2019-01-04T09:38:41.340Z,3948.00
2019-01-04T09:39:41.489Z,3816.00
2019-01-04T09:40:41.649Z,3804.00
2019-01-04T09:41:41.817Z,3724.00
2019-01-04T09:42:41.987Z,3672.00
2019-01-04T09:43:42.167Z,3556.00
2019-01-04T09:44:42.326Z,3480.00
2019-01-04T09:45:42.499Z,3408.00
2019-01-04T09:46:42.674Z,3348.00
2019-01-04T09:47:42.844Z,3316.00
2019-01-04T09:48:43.016Z,3312.00
2019-01-04T09:49:43.174Z,3368.00
2019-01-04T09:50:43.347Z,3428.00
2019-01-04T09:51:43.515Z,3528.00
2019-01-04T09:52:43.688Z,3664.00
2019-01-04T09:53:43.858Z,3788.00
2019-01-04T09:54:44.040Z,3848.00
2019-01-04T09:55:44.207Z,3880.00
2019-01-04T09:56:44.376Z,3876.00
2019-01-04T09:57:44.543Z,3860.00
2019-01-04T09:58:44.720Z,3900.00
2019-01-04T09:59:44.888Z,3788.00
2019-01-04T10:00:45.063Z,3340.00
2019-01-04T10:01:45.231Z,3048.00
2019-01-04T10:02:45.407Z,3100.00
2019-01-04T10:03:45.582Z,3236.00
2019-01-04T10:04:45.750Z,3396.00
2019-01-04T10:05:45.911Z,3472.00
2019-01-04T10:06:46.086Z,3448.00
2019-01-04T10:07:46.266Z,3308.00
2019-01-04T10:08:46.438Z,3240.00
2019-01-04T10:09:46.638Z,3184.00
2019-01-04T10:10:46.764Z,3124.00
2019-01-04T10:11:46.930Z,3072.00
2019-01-04T10:12:47.106Z,3072.00
2019-01-04T10:13:47.267Z,3196.00
2019-01-04T10:14:47.438Z,3368.00
2019-01-04T10:15:47.610Z,3576.00
2019-01-04T10:16:47.782Z,3512.00
2019-01-04T10:17:47.972Z,3648.00
2019-01-04T10:18:48.125Z,3712.00
2019-01-04T10:19:48.288Z,3768.00
2019-01-04T10:20:48.462Z,3860.00
2019-01-04T10:21:48.632Z,4044.00
2019-01-04T10:22:48.802Z,3984.00
2019-01-04T10:23:48.971Z,4292.00
2019-01-04T10:24:49.142Z,4420.00
2019-01-04T10:25:49.308Z,4528.00
2019-01-04T10:26:49.482Z,4812.00
2019-01-04T10:27:49.656Z,4804.00
2019-01-04T10:28:49.824Z,4692.00
2019-01-04T10:29:49.996Z,4092.00
2019-01-04T10:30:50.164Z,3752.00
2019-01-04T10:31:50.337Z,3592.00
2019-01-04T10:32:50.525Z,3492.00
2019-01-04T10:33:50.675Z,3304.00
2019-01-04T10:34:50.843Z,3016.00
2019-01-04T10:35:51.021Z,2764.00
2019-01-04T10:36:51.195Z,2524.00
2019-01-04T10:37:51.366Z,2480.00
2019-01-04T10:38:51.546Z,2564.00
2019-01-04T10:39:51.732Z,2692.00
2019-01-04T10:40:51.895Z,2524.00
2019-01-04T10:41:52.068Z,2376.00
2019-01-04T10:42:52.242Z,2204.00
2019-01-04T10:43:52.403Z,2088.00
2019-01-04T10:44:52.591Z,1920.00
2019-01-04T10:45:52.893Z,1740.00
2019-01-04T10:46:52.945Z,1644.00
2019-01-04T10:47:53.136Z,1544.00
2019-01-04T10:48:53.304Z,1512.00
2019-01-04T10:49:53.522Z,1492.00
2019-01-04T10:50:53.645Z,1484.00
2019-01-04T10:51:53.852Z,1472.00
2019-01-04T10:52:53.973Z,1420.00
2019-01-04T10:53:54.226Z,1388.00
2019-01-04T10:54:54.315Z,1428.00
2019-01-04T10:55:54.507Z,1460.00
2019-01-04T10:56:54.670Z,1500.00
2019-01-04T10:57:54.855Z,1544.00
2019-01-04T10:58:55.023Z,1484.00
2019-01-04T10:59:55.194Z,1364.00
2019-01-04T11:00:55.374Z,1364.00
2019-01-04T11:01:55.552Z,1312.00
2019-01-04T11:02:55.724Z,1296.00
2019-01-04T11:03:55.891Z,1256.00
2019-01-04T11:04:56.059Z,1312.00
2019-01-04T11:05:56.232Z,1428.00
2019-01-04T11:06:56.403Z,1448.00
2019-01-04T11:07:56.572Z,1456.00
2019-01-04T11:08:56.758Z,1452.00
2019-01-04T11:09:56.914Z,1500.00
2019-01-04T11:10:57.092Z,1520.00
2019-01-04T11:11:57.311Z,1580.00
2019-01-04T11:12:57.421Z,1488.00
2019-01-04T11:13:57.591Z,1476.00
2019-01-04T11:14:57.772Z,1464.00
2019-01-04T11:15:57.942Z,1500.00
2019-01-04T11:16:58.387Z,1540.00
2019-01-04T11:17:58.277Z,1444.00
2019-01-04T11:18:58.451Z,1520.00
2019-01-04T11:19:58.621Z,1676.00
2019-01-04T11:20:58.792Z,1624.00
2019-01-04T11:21:58.963Z,1452.00
2019-01-04T11:22:59.141Z,1500.00
2019-01-04T11:23:59.301Z,1524.00
2019-01-04T11:24:59.476Z,1548.00
2019-01-04T11:25:59.653Z,1412.00
2019-01-04T11:26:59.818Z,1292.00
2019-01-04T11:27:59.992Z,1268.00
2019-01-04T11:29:00.163Z,1252.00
2019-01-04T11:30:00.333Z,1308.00
2019-01-04T11:31:00.503Z,1260.00
2019-01-04T11:32:00.677Z,1172.00
2019-01-04T11:33:00.849Z,1284.00
2019-01-04T11:34:01.014Z,1232.00
2019-01-04T11:35:01.185Z,1248.00
2019-01-04T11:36:01.359Z,1332.00
2019-01-04T11:37:01.535Z,1428.00
2019-01-04T11:38:01.704Z,1300.00
2019-01-04T11:39:01.887Z,1088.00
2019-01-04T11:40:02.067Z,984.00
2019-01-04T11:41:02.227Z,1016.00
2019-01-04T11:42:02.400Z,1272.00
2019-01-04T11:43:02.565Z,1164.00
2019-01-04T11:44:02.747Z,996.00
2019-01-04T11:45:02.926Z,864.00
2019-01-04T11:46:03.085Z,820.00
2019-01-04T11:47:03.257Z,816.00
2019-01-04T11:48:03.428Z,948.00
2019-01-04T11:49:03.596Z,1072.00
2019-01-04T11:50:03.775Z,1160.00
2019-01-04T11:51:03.933Z,1112.00
2019-01-04T11:52:04.107Z,1072.00
2019-01-04T11:53:04.278Z,1100.00
2019-01-04T11:54:04.445Z,1104.00
2019-01-04T11:55:04.624Z,1092.00
2019-01-04T11:56:04.801Z,1036.00
2019-01-04T11:57:04.964Z,1016.00
2019-01-04T11:58:05.131Z,964.00
2019-01-04T11:59:05.309Z,936.00
2019-01-04T12:00:05.478Z,1000.00
2019-01-04T12:01:05.652Z,968.00
2019-01-04T12:02:05.818Z,924.00
2019-01-04T12:03:05.993Z,844.00
2019-01-04T12:04:06.155Z,828.00
2019-01-04T12:05:06.322Z,908.00
2019-01-04T12:06:06.505Z,900.00
2019-01-04T12:07:06.663Z,868.00
2019-01-04T12:08:06.835Z,892.00
2019-01-04T12:09:07.009Z,932.00
2019-01-04T12:10:07.180Z,964.00
2019-01-04T12:11:07.359Z,956.00
2019-01-04T12:12:07.546Z,944.00
2019-01-04T12:13:07.726Z,848.00
2019-01-04T12:14:07.876Z,772.00
2019-01-04T12:15:08.035Z,768.00
2019-01-04T12:16:08.197Z,748.00
2019-01-04T12:17:08.367Z,836.00
2019-01-04T12:18:08.539Z,816.00
2019-01-04T12:19:08.709Z,864.00
2019-01-04T12:20:08.884Z,968.00
2019-01-04T12:21:09.051Z,976.00
2019-01-04T12:22:09.219Z,936.00
2019-01-04T12:23:11.256Z,884.00
2019-01-04T12:24:09.582Z,820.00
2019-01-04T12:25:09.743Z,796.00
2019-01-04T12:26:09.906Z,732.00
2019-01-04T12:27:10.085Z,724.00
2019-01-04T12:28:10.247Z,788.00
2019-01-04T12:29:10.412Z,964.00
2019-01-04T12:30:10.582Z,864.00
2019-01-04T12:31:10.765Z,816.00
2019-01-04T12:32:10.917Z,844.00
2019-01-04T12:33:11.097Z,860.00
2019-01-04T12:34:16.643Z,732.00
2019-01-04T12:35:11.430Z,664.00
2019-01-04T12:36:11.599Z,628.00
2019-01-04T12:37:11.756Z,684.00
2019-01-04T12:38:11.940Z,728.00
2019-01-04T12:39:12.132Z,712.00
2019-01-04T12:40:12.282Z,704.00
2019-01-04T12:41:12.461Z,704.00
2019-01-04T12:42:12.633Z,820.00
2019-01-04T12:43:12.794Z,864.00
2019-01-04T12:44:12.954Z,932.00
2019-01-04T12:45:13.131Z,1144.00
2019-01-04T12:46:13.302Z,1148.00
2019-01-04T12:47:13.473Z,1060.00
2019-01-04T12:48:13.635Z,1200.00
2019-01-04T12:49:13.806Z,1184.00
2019-01-04T12:50:13.970Z,1216.00
2019-01-04T12:51:14.148Z,1464.00